Weather observations for the past three days for
Pampa, Perry Lefors Field Airport
Metric (Imperial)
Date Time (cdt) Wind (kph) Vis. (km) Weather Sky Cond. Temperature (ºC) Relative Humidity Wind Chill (°C) Heat Index (°C) Pressure Precipitation (cm)
Air Dwpt 6 hour altimeter (cm) sea level (mb) 1 hr 3 hr 6 hr
Max. Min.
03 00:50 SE 26 16.09 Fair CLR 27.9 14.2 31.7 27.4 43% 28 76.2 0.0
03 00:30 S 30 G 39 16.09 Fair CLR 28.1 14 42% 28 76.17 0.0
03 00:10 S 28 G 37 16.09 Fair CLR 28.5 13.7 40% 28 76.2 0.0
02 23:50 S 28 G 39 16.09 Fair CLR 28.8 13.5 39% 28 76.17 0.0
02 23:30 SE 26 G 33 16.09 Fair CLR 29 13.4 38% 28 76.17 0.0
02 23:10 SE 26 16.09 Fair CLR 29.4 13.3 37% 29 76.17 0.0
02 22:50 SE 26 16.09 Fair CLR 30 13.3 36% 29 76.17 0.0
02 22:30 SE 26 16.09 Fair CLR 29.3 13.8 39% 29 76.17 0.0
02 22:10 SE 15 16.09 Fair CLR 27.5 15.2 47% 28 76.2 0.0
02 21:50 SE 13 16.09 Fair CLR 27.8 15.3 47% 28 76.17 0.0
02 21:30 SE 13 16.09 Fair CLR 28 15.2 46% 28 76.17 0.0
02 21:10 SE 13 16.09 Fair CLR 27.5 15.4 48% 28 76.17 0.0
02 20:50 SE 11 16.09 Fair CLR 27.9 15.5 47% 28 76.15 0.0
02 20:30 S 13 16.09 Fair CLR 27.8 15.8 48% 28 76.12 0.0
02 20:20 S 13 16.09 Fair CLR 28.7 15.5 45% 29 76.12 0.0
02 19:50 S 13 16.09 Fair CLR 30.2 15.7 41% 30 76.12 0.0
02 19:30 SW 13 16.09 Fair CLR 31.1 15.6 39% 31 76.12 0.0
02 19:10 S 9 16.09 Fair CLR 31.7 16 39% 32 76.12 0.0
02 18:50 Calm 16.09 Mostly Cloudy SCT050 SCT060 BKN100 29.4 17 38.1 28 47% 30 76.15 0.0
02 18:30 W 11 16.09 Light Rain SCT060 BKN070 OVC100 28.3 17.4 52% 29 76.17 0.0
02 18:10 SW 20 G 33 16.09 Overcast OVC100 30.9 16.4 42% 31 76.17 0.0
02 17:50 W 13 16.09 Overcast BKN100 OVC120 32.2 15.5 36% 32 76.17 0.0
02 17:30 S 15 16.09 Mostly Cloudy BKN110 35.6 12.8 25% 35 76.12 0.0
02 17:10 S 22 16.09 Partly Cloudy SCT120 36.2 13.3 25% 35 76.12 0.0
02 16:50 S 26 G 33 16.09 Partly Cloudy SCT110 36.4 13.1 25% 36 76.12 0.0
02 16:30 S 24 G 39 16.09 Partly Cloudy SCT095 38 13.7 23% 37 76.12 0.0
02 16:10 S 20 G 37 16.09 Partly Cloudy SCT095 37.6 13.9 24% 37 76.15 0.0
02 15:50 S 26 G 35 16.09 Partly Cloudy SCT085 36.9 14.1 26% 36 76.17 0.0
02 15:30 S 20 G 33 16.09 Partly Cloudy SCT085 37 14.4 26% 37 76.17 0.0
02 15:10 S 20 G 31 16.09 Partly Cloudy SCT085 37.5 14.4 25% 37 76.23 0.0
02 14:50 SW 20 G 33 16.09 Partly Cloudy SCT085 SCT120 37.7 14.9 26% 38 76.25 0.0
02 14:30 SW 26 G 37 16.09 Partly Cloudy SCT085 SCT100 36.9 14.7 27% 37 76.28 0.0
02 14:10 SW 26 G 35 16.09 Partly Cloudy SCT085 36.5 14.7 27% 36 76.28 0.0
02 13:50 S 22 G 35 16.09 Partly Cloudy SCT085 SCT100 36.6 14.9 27% 36 76.3 0.0
02 13:30 S 20 G 39 16.09 Fair CLR 36.6 15 28% 36 76.35 0.0
02 13:10 S 22 16.09 Fair CLR 36 15.2 29% 36 76.38 0.0
02 12:50 SW 22 G 35 16.09 Fair CLR 35.6 15.3 35.7 21.5 30% 35 76.38 0.0
02 12:30 SW 24 G 30 16.09 Fair CLR 35.4 15.5 30% 35 76.4 0.0
02 12:10 SW 24 16.09 Fair CLR 34.9 15.5 31% 35 76.43 0.0
02 11:50 SW 26 G 33 16.09 Fair CLR 34.3 15.5 32% 34 76.45 0.0
02 11:30 SW 20 G 28 16.09 Fair CLR 33.5 15.2 33% 33 76.45 0.0
02 11:10 SW 22 16.09 Fair CLR 32.6 14.9 34% 32 76.45 0.0
02 10:50 S 19 G 30 16.09 Fair CLR 32.1 14.6 35% 32 76.45 0.0
02 10:30 S 17 16.09 Fair CLR 31.9 14.5 35% 31 76.45 0.0
02 10:10 S 19 16.09 Partly Cloudy SCT110 31 14.2 36% 30 76.45 0.0
02 09:50 S 19 16.09 Partly Cloudy SCT110 30.4 14.1 37% 30 76.45 0.0
02 09:30 S 19 16.09 Partly Cloudy SCT110 29.2 13.8 39% 29 76.45 0.0
02 09:10 S 19 16.09 Overcast OVC110 28 14.2 43% 28 76.45 0.0
02 08:50 S 19 16.09 Overcast OVC110 27.1 14 45% 27 76.45 0.0
02 08:30 S 20 16.09 Overcast OVC110 26.9 14 45% 27 76.43 0.0
02 08:10 S 15 16.09 Partly Cloudy SCT110 24.8 14.6 53% 26 76.4 0.0
02 07:50 SE 13 16.09 Fair CLR 22.2 14.6 62% 76.4 0.0
02 07:30 S 13 16.09 Fair CLR 21.6 14.2 63% 76.4 0.0
02 07:10 S 13 16.09 Fair CLR 21.8 14 61% 76.38 0.0
02 06:50 S 13 16.09 Fair CLR 22.5 13.8 26.7 22.5 58% 76.38 0.0
02 06:30 S 15 16.09 Fair CLR 23.5 13.7 54% 76.38 0.0
02 06:10 S 19 16.09 Fair CLR 23.8 13.6 53% 76.38 0.0
02 05:50 S 19 16.09 Fair CLR 24.1 13.5 52% 25 76.38 0.0
02 05:30 S 20 16.09 Fair CLR 24.3 13.6 51% 26 76.35 0.0
02 05:10 S 20 16.09 Fair CLR 24.5 13.6 51% 26 76.38 0.0
02 04:50 S 22 16.09 Fair CLR 24.5 13.6 51% 26 76.38 0.0
02 04:30 S 20 16.09 Fair CLR 24.1 13.7 52% 25 76.35 0.0
02 04:10 S 20 16.09 Fair CLR 24 13.6 52% 25 76.38 0.0
02 03:50 S 19 16.09 Fair CLR 24.1 13.6 52% 25 76.38 0.0
02 03:30 S 19 16.09 Fair CLR 24.4 13.5 51% 26 76.38 0.0
02 03:10 S 19 16.09 Fair CLR 24.6 13.5 50% 26 76.38 0.0
02 02:50 S 20 16.09 Fair CLR 25 13.3 48% 26 76.38 0.0
02 02:30 S 22 16.09 Fair CLR 25.5 13.1 46% 26 76.38 0.0
02 02:10 S 20 16.09 Fair CLR 25.5 12.9 46% 26 76.38 0.0
02 01:50 S 20 16.09 Fair CLR 25.6 12.9 45% 26 76.38 0.0
02 01:30 S 20 16.09 Fair CLR 25.7 13 45% 26 76.38 0.0
02 01:10 S 19 16.09 Fair CLR 26.5 13 43% 27 76.38 0.0
02 00:50 S 19 16.09 Fair CLR 26.8 13 34 26.8 43% 27 76.38 0.0
02 00:30 S 19 16.09 Fair CLR 27 13 42% 27 76.38 0.0
02 00:10 S 20 16.09 Fair CLR 27.2 13 42% 27 76.38 0.0
01 23:30 S 24 16.09 Fair CLR 28 13 40% 28 76.38 0.0
01 23:10 SE 22 16.09 Fair CLR 28.2 13.1 39% 28 76.4 0.0
01 22:50 SE 28 16.09 Fair CLR 28.5 13.3 39% 28 76.38 0.0
01 22:30 SE 24 G 31 16.09 Fair CLR 28.6 13.5 40% 28 76.38 0.0
01 22:10 SE 26 G 31 16.09 Fair CLR 28.7 13.9 40% 28 76.38 0.0
01 21:50 SE 22 G 31 16.09 Fair CLR 28.8 14.2 41% 28 76.38 0.0
01 21:30 SE 19 16.09 Fair CLR 29 14.3 41% 29 76.35 0.0
01 21:10 SE 20 16.09 Fair CLR 29.5 14.3 39% 29 76.33 0.0
01 20:50 SE 19 16.09 Fair CLR 29.8 14.5 39% 29 76.3 0.0
01 20:30 SE 20 16.09 Partly Cloudy SCT095 30.2 14.6 39% 30 76.3 0.0
01 20:10 SE 19 16.09 Partly Cloudy SCT095 30.7 14.7 38% 30 76.28 0.0
01 19:50 SE 20 16.09 Fair CLR 31.5 14.7 36% 31 76.28 0.0
01 19:30 SE 19 16.09 Fair CLR 32.4 14.7 34% 32 76.28 0.0
01 19:10 SE 30 16.09 Fair CLR 33.4 14.8 33% 33 76.25 0.0
01 18:50 S 20 16.09 Fair CLR 34.1 14.5 36.9 33.2 31% 34 76.25 0.0
01 18:30 S 26 G 33 16.09 Partly Cloudy SCT085 34.6 14.5 30% 34 76.25 0.0
01 18:10 S 20 16.09 Partly Cloudy SCT085 34.9 14.7 30% 34 76.23 0.0
01 17:50 S 22 G 31 16.09 Partly Cloudy SCT085 35.6 14.6 28% 35 76.25 0.0
01 17:30 SE 22 G 41 16.09 Fair CLR 35.6 14.3 28% 35 76.25 0.0
01 17:10 S 22 G 33 16.09 Fair CLR 35.6 14 27% 35 76.25 0.0
01 16:50 SE 20 16.09 Fair CLR 35.7 14.2 27% 35 76.28 0.0
01 16:30 S 22 G 30 16.09 Fair CLR 36.1 13.7 26% 35 76.28 0.0
01 16:10 S 11 G 33 16.09 Partly Cloudy SCT090 34.7 13.3 27% 34 76.3 0.0
01 15:50 S 17 G 33 16.09 Mostly Cloudy BKN090 36 13.7 26% 35 76.33 0.0
01 15:30 S 19 G 30 16.09 Partly Cloudy SCT090 36.8 14.1 26% 36 76.35 0.0
01 15:10 SE 20 G 31 16.09 Partly Cloudy SCT090 SCT110 36.4 13.7 26% 36 76.38 0.0
01 14:50 S 19 16.09 Partly Cloudy SCT080 34.9 13.7 28% 34 76.38 0.0
01 14:30 S 24 G 30 16.09 Mostly Cloudy BKN080 BKN100 34.9 14.4 29% 34 76.4 0.0
01 14:10 S 13 16.09 Partly Cloudy SCT090 SCT110 33.9 13.8 30% 33 76.43 0.0
01 13:50 S 19 G 30 16.09 Mostly Cloudy BKN090 35.2 14 28% 35 76.43 0.0
01 13:30 SW 7 G 31 16.09 Partly Cloudy SCT075 SCT090 35.7 12.8 25% 35 76.45 0.0
01 13:10 S 19 G 31 16.09 Mostly Cloudy SCT075 BKN090 34 14.2 30% 33 76.48 0.0
01 12:50 SW 20 G 33 16.09 Partly Cloudy SCT075 SCT090 34.4 13.8 35 21.6 29% 34 76.5 0.0
01 12:30 S 17 G 30 16.09 Fair CLR 34.6 14.6 30% 34 76.5 0.0
01 12:10 SW 17 G 30 16.09 Fair CLR 33.8 15.8 34% 34 76.5 0.0
01 11:50 SW 22 G 31 16.09 Fair CLR 33.7 16 35% 34 76.5 0.0
01 11:30 SW 19 G 30 16.09 Fair CLR 33 16.3 37% 33 76.5 0.0
01 11:10 SW 24 G 33 16.09 Fair CLR 32.4 16.3 38% 32 76.5 0.0
01 10:50 SW 26 G 37 16.09 Fair CLR 31.9 16.3 39% 32 76.5 0.0
01 10:30 SW 28 16.09 Fair CLR 31.5 16.2 40% 32 76.5 0.0
01 10:10 SW 31 16.09 Fair CLR 31 16 40% 31 76.5 0.0
01 09:50 SW 26 16.09 Fair CLR 30.4 15.7 41% 30 76.5 0.0
01 09:30 S 31 16.09 Fair CLR 29.6 15.6 43% 30 76.5 0.0
01 09:10 S 30 16.09 Fair CLR 28.9 15.5 44% 29 76.5 0.0
01 08:50 S 24 16.09 Fair CLR 28 15.2 46% 28 76.5 0.0
01 08:30 S 20 16.09 Fair CLR 26.7 15.1 49% 27 76.5 0.0
01 08:10 S 20 16.09 Fair CLR 24.8 14.6 53% 26 76.5 0.0
01 07:50 S 15 16.09 Fair CLR 23.5 14.5 57% 76.5 0.0
01 07:30 S 17 16.09 Fair CLR 22.1 14.3 61% 76.48 0.0
01 07:10 S 15 16.09 Fair CLR 21.7 14.2 63% 76.45 0.0
01 06:50 S 17 16.09 Fair CLR 21.7 14.1 26 21.7 62% 76.45 0.0
01 06:30 S 15 16.09 Fair CLR 22.4 14 59% 76.45 0.0
01 06:10 S 17 16.09 Fair CLR 22.6 13.9 58% 76.45 0.0
01 05:50 S 17 16.09 Fair CLR 22.8 13.8 57% 76.45 0.0
01 05:30 S 19 16.09 Fair CLR 22.6 13.7 57% 76.43 0.0
01 05:10 S 17 16.09 Fair CLR 22.9 13.7 56% 76.45 0.0
01 04:50 S 20 16.09 Fair CLR 23.5 13.5 54% 76.45 0.0
01 04:30 S 20 16.09 Fair CLR 23.7 13.5 53% 76.45 0.0
01 04:10 S 19 16.09 Fair CLR 24 13.3 51% 25 76.43 0.0
01 03:50 S 20 16.09 Fair CLR 24 13.3 51% 25 76.43 0.0
01 03:30 S 17 16.09 Fair CLR 24.3 13.2 50% 26 76.43 0.0
01 03:10 S 19 16.09 Fair CLR 24.7 13.1 49% 26 76.43 0.0
01 02:50 S 19 16.09 Fair CLR 25 13 47% 26 76.43 0.0
01 02:30 S 22 16.09 Fair CLR 25.5 13 46% 26 76.43 0.0
01 02:10 S 20 16.09 Fair CLR 25.5 13 46% 26 76.45 0.0
01 01:50 S 20 16.09 Fair CLR 25.7 13 45% 26 76.45 0.0
01 01:30 S 19 16.09 Fair CLR 25.8 13.2 46% 26 76.48 0.0
01 01:10 S 19 16.09 Fair CLR 26 13.4 46% 26 76.48 0.0
01 00:50 S 17 16.09 Fair CLR 25.9 13.6 34.5 25.9 47% 26 76.48 0.0
01 00:30 SE 17 16.09 Fair CLR 26.2 13.7 46% 27 76.48 0.0
01 00:10 SE 20 G 30 16.09 Fair CLR 27 13.6 44% 27 76.48 0.0
31 23:50 SE 20 16.09 Fair CLR 26.9 13.8 45% 27 76.45 0.0
31 23:30 SE 19 16.09 Fair CLR 26.8 14.1 46% 27 76.45 0.0
31 23:10 SE 19 16.09 Fair CLR 27.2 14.1 45% 27 76.45 0.0
31 22:50 SE 19 16.09 Fair CLR 27.5 14.2 44% 27 76.45 0.0
31 22:30 SE 17 16.09 Fair CLR 27.7 14.5 44% 28 76.43 0.0
31 22:10 SE 20 16.09 Fair CLR 28 14.5 44% 28 76.4 0.0
31 21:50 SE 19 16.09 Fair CLR 28.1 14.6 44% 28 76.38 0.0
31 21:30 SE 17 16.09 Fair CLR 28.6 14.5 42% 28 76.35 0.0
31 21:10 SE 20 16.09 Fair CLR 29.3 14.5 40% 29 76.3 0.0
31 20:50 SE 22 G 30 16.09 Fair CLR 29.8 14.5 39% 29 76.28 0.0
31 20:30 SE 19 16.09 Fair CLR 30 14.2 38% 29 76.28 0.0
31 20:10 SE 17 16.09 Fair CLR 31.1 13.7 35% 30 76.25 0.0
31 19:50 S 20 16.09 Fair CLR 32.2 13.5 32% 31 76.25 0.0
31 19:30 S 19 16.09 Fair CLR 33.2 13.4 30% 32 76.23 0.0
31 19:10 S 20 G 30 16.09 Fair CLR 34.1 13.5 29% 33 76.23 0.0
31 18:30 S 20 G 28 16.09 Fair CLR 35.3 12.3 25% 34 76.23 0.0
31 18:10 S 22 G 33 16.09 Fair CLR 35.6 12.5 25% 34 76.25 0.0
31 17:50 SE 20 16.09 Fair CLR 36.1 12.8 24% 35 76.25 0.0
31 17:30 S 15 16.09 Fair CLR 36.4 12.5 24% 35 76.25 0.0
31 17:10 S 17 G 33 16.09 Fair CLR 36.4 12.9 24% 35 76.25 0.0
31 16:50 SE 20 G 28 16.09 Fair CLR 36.5 13.1 24% 36 76.25 0.0
31 16:30 S 17 16.09 Fair CLR 37 12.7 23% 36 76.28 0.0
31 16:10 S 15 G 30 16.09 Fair CLR 36.9 12.8 23% 36 76.28 0.0
31 15:50 S 19 16.09 Partly Cloudy SCT090 37 13.5 24% 36 76.3 0.0
31 15:30 S 11 G 28 16.09 Partly Cloudy SCT090 36.7 13.5 25% 36 76.33 0.0
31 15:10 S 20 G 28 16.09 Partly Cloudy SCT090 37 13.7 25% 36 76.35 0.0
31 14:50 S 20 G 31 16.09 Partly Cloudy SCT090 36.4 13.9 26% 36 76.38 0.0
31 14:30 SW 11 G 31 16.09 Fair CLR 36.3 13.8 26% 36 76.38 0.0
31 14:10 S 17 G 28 16.09 Fair CLR 36.3 13.9 26% 36 76.38 0.0
31 13:50 S 13 G 33 16.09 Fair CLR 36.3 13.8 26% 36 76.38 0.0
31 13:30 S 24 G 33 16.09 Fair CLR 36.1 14.2 27% 36 76.4 0.0
31 13:10 S 19 G 26 16.09 Fair CLR 35.9 14.8 28% 36 76.43 0.0
31 12:50 S 22 16.09 Fair CLR 35.6 14.7 35.6 20.5 29% 35 76.45 0.0
31 12:30 SW 26 G 31 16.09 Fair CLR 34.7 15.2 31% 34 76.45 0.0
31 12:10 SW 22 G 31 16.09 Fair CLR 34.2 15.7 33% 34 76.45 0.0
31 11:50 SW 26 16.09 Fair CLR 33.7 15.6 34% 34 76.48 0.0
31 11:30 SW 24 G 35 16.09 Fair CLR 33.1 15.6 35% 33 76.48 0.0
31 11:10 SW 24 16.09 Fair CLR 32.5 15.4 36% 32 76.45 0.0
31 10:50 SW 30 G 43 16.09 Fair CLR 32.1 15.3 36% 32 76.45 0.0
31 10:30 SW 30 G 39 16.09 Fair CLR 31.9 15.2 36% 32 76.45 0.0
31 10:10 SW 22 16.09 Fair CLR 31.1 14.8 37% 31 76.45 0.0
31 09:50 SW 22 16.09 Fair CLR 30.5 14.6 38% 30 76.45 0.0
31 09:30 SW 22 16.09 Fair CLR 29.3 14.4 40% 29 76.45 0.0
31 09:10 S 22 16.09 Fair CLR 27.8 14.5 44% 28 76.45 0.0
31 08:50 S 22 16.09 Fair CLR 26.3 14.5 48% 27 76.45 0.0
31 08:30 S 19 16.09 Fair CLR 24.7 14.8 54% 26 76.45 0.0
31 08:10 S 13 16.09 Fair CLR 23.3 15 60% 76.43 0.0
31 07:50 S 13 16.09 Fair CLR 21.9 15 65% 76.4 0.0
31 07:30 S 7 16.09 Fair CLR 21.1 14.7 67% 76.38 0.0
31 07:10 S 13 16.09 Fair CLR 20.5 14.5 69% 76.38 0.0
31 06:50 S 9 16.09 Fair CLR 21 14.5 28 21 67% 76.35 0.0
31 06:30 S 11 16.09 Fair CLR 21.7 14.5 64% 76.33 0.0
31 06:10 S 15 16.09 Fair CLR 22 14.5 63% 76.3 0.0
31 05:50 S 17 16.09 Fair CLR 21.8 14.6 64% 76.28 0.0
31 05:30 S 15 16.09 Fair CLR 22 14.6 63% 76.28 0.0
31 05:10 S 15 16.09 Fair CLR 22.3 14.5 61% 76.28 0.0
31 04:50 S 17 16.09 Fair CLR 22.6 14.5 60% 76.28 0.0
31 04:30 S 15 16.09 Fair CLR 23.1 14.3 58% 76.28 0.0
31 04:10 S 13 16.09 Fair CLR 24.5 14.2 53% 26 76.28 0.0
31 03:50 S 17 16.09 Fair CLR 25.1 14.1 51% 26 76.25 0.0
31 03:30 S 19 16.09 Fair CLR 25.5 14.1 49% 26 76.25 0.0
31 03:10 S 19 16.09 Fair CLR 25.7 14.1 49% 26 76.23 0.0
31 02:50 S 20 16.09 Fair CLR 26.3 14.1 47% 27 76.23 0.0
31 02:30 S 22 G 33 16.09 Fair CLR 26.6 14.1 46% 27 76.23 0.0
31 02:10 S 26 G 39 16.09 Fair CLR 27.1 14.1 45% 27 76.23 0.0
31 01:50 S 28 16.09 Fair CLR 27.4 14.1 44% 27 76.23 0.0
31 01:30 S 28 16.09 Fair CLR 27.7 14.1 43% 28 76.23 0.0
31 01:10 S 28 G 37 16.09 Fair CLR 28 14.1 43% 28 76.25 0.0
Date Time (cdt) Wind (kph) Vis. (km) Weather Sky Cond. Air Dwpt Max. Min. Relative Humidity Wind Chill (°C) Heat Index (°C) altimeter (cm) sea level (mb) 1 hr 3 hr 6 hr
6 hour
Temperature (ºC) Pressure Precipitation (cm)